KWRI/WRI METAR and TAF weather

Enter ICAO airport designator
Station Type Date Time Source
KWRI METAR 2022/12/02 22:55 UTC NOAA

KWRI 022255Z AUTO 18004KT 10SM CLR 02/M03 A3048 RMK AO2 SLP323 T00241031


Station Type Date Time Source
KWRI Decoded METAR 2022/12/02 22:55 UTC NOAA

Mcguire Air Force Base, NJ, United States (KWRI) 40-01N 074-36W
Dec 02, 2022 - 05:55 PM EST / 2022.12.02 2255 UTC
Wind: from the S (180 degrees) at 5 MPH (4 KT):0
Visibility: 10 mile(s):0
Sky conditions: clear
Temperature: 36.3 F (2.4 C)
Dew Point: 26.4 F (-3.1 C)
Relative Humidity: 66%
Pressure (altimeter): 30.48 in. Hg (1032 hPa)
ob: KWRI 022255Z AUTO 18004KT 10SM CLR 02/M03 A3048 RMK AO2 SLP323 T00241031
cycle: 23

Station Type Date Time Source
KWRI TAF 2022/12/02 18:06 UTC NOAA

TAF KWRI 021800Z 0218/0324 21008KT 9999 SCT100 SCT250 QNH3041INS
BECMG 0304/0305 18005KT 9999 SCT035 BKN100 WS020/21040KT QNH3026INS
BECMG 0310/0311 21015G25KT 9999 VCSH BKN025 OVC100 WS020/21050KT QNH3017INS
BECMG 0314/0315 21015G25KT 8000 -SHRA OVC020 WS020/21050KT QNH3002INS
BECMG 0319/0320 23012G20KT 9999 VCSH OVC020 QNH3002INS TX14/0318Z TN02/0302Z

Example: see airport list